createdAt,value
2018-02-17T00:00:57.948Z,-1.70
2018-02-17T00:03:26.090Z,-1.80
2018-02-17T00:05:54.264Z,-1.70
2018-02-17T00:08:22.408Z,-1.70
2018-02-17T00:10:50.569Z,-1.70
2018-02-17T00:13:18.732Z,-1.60
2018-02-17T00:15:57.037Z,-1.50
2018-02-17T00:18:25.185Z,-1.40
2018-02-17T00:20:53.378Z,-1.40
2018-02-17T00:23:21.520Z,-1.40
2018-02-17T00:25:49.681Z,-1.40
2018-02-17T00:28:18.613Z,-1.40
2018-02-17T00:30:46.773Z,-1.30
2018-02-17T00:33:14.921Z,-1.30
2018-02-17T00:35:43.858Z,-1.30
2018-02-17T00:38:11.996Z,-1.20
2018-02-17T00:40:40.901Z,-1.20
2018-02-17T00:43:09.061Z,-1.20
2018-02-17T00:45:38.940Z,-1.20
2018-02-17T00:48:07.098Z,-1.20
2018-02-17T00:50:35.241Z,-1.40
2018-02-17T00:53:03.409Z,-1.50
2018-02-17T00:55:33.245Z,-1.50
2018-02-17T00:58:02.166Z,-1.50
2018-02-17T01:00:30.317Z,-1.40
2018-02-17T01:02:58.509Z,-1.40
2018-02-17T01:05:27.557Z,-1.30
2018-02-17T01:07:56.493Z,-1.30
2018-02-17T01:10:24.632Z,-1.40
2018-02-17T01:12:52.793Z,-1.40
2018-02-17T01:15:30.195Z,-1.50
2018-02-17T01:17:59.196Z,-1.70
2018-02-17T01:20:27.337Z,-1.70
2018-02-17T01:22:55.497Z,-1.70
2018-02-17T01:25:34.301Z,-1.80
2018-02-17T01:28:02.474Z,-1.80
2018-02-17T01:30:30.618Z,-1.80
2018-02-17T01:32:58.753Z,-1.90
2018-02-17T01:35:28.840Z,-2.00
2018-02-17T01:37:56.981Z,-2.00
2018-02-17T01:40:25.142Z,-2.10
2018-02-17T01:42:54.054Z,-2.00
2018-02-17T01:45:25.229Z,-1.90
2018-02-17T01:47:53.371Z,-1.90
2018-02-17T01:50:33.409Z,-1.90
2018-02-17T01:53:01.593Z,-1.90
2018-02-17T01:55:29.757Z,-1.90
2018-02-17T01:57:57.917Z,-1.90
2018-02-17T02:00:26.860Z,-1.80
2018-02-17T02:02:54.996Z,-1.80
2018-02-17T02:05:25.161Z,-1.80
2018-02-17T02:07:53.297Z,-1.80
2018-02-17T02:10:21.545Z,-1.60
2018-02-17T02:12:50.556Z,-1.70
2018-02-17T02:15:21.498Z,-1.70
2018-02-17T02:17:49.675Z,-1.70
2018-02-17T02:20:17.881Z,-1.80
2018-02-17T02:22:46.065Z,-1.70
2018-02-17T02:25:21.410Z,-1.70
2018-02-17T02:27:49.544Z,-1.80
2018-02-17T02:30:17.693Z,-1.70
2018-02-17T02:32:46.609Z,-1.70
2018-02-17T02:35:15.745Z,-1.70
2018-02-17T02:37:43.941Z,-1.70
2018-02-17T02:40:12.154Z,-1.70
2018-02-17T02:42:40.370Z,-1.80
2018-02-17T02:45:09.552Z,-1.80
2018-02-17T02:47:37.716Z,-1.60
2018-02-17T02:50:05.863Z,-1.60
2018-02-17T02:52:34.037Z,-1.50
2018-02-17T02:55:09.634Z,-1.50
2018-02-17T02:57:37.806Z,-1.50
2018-02-17T03:00:05.960Z,-1.50
2018-02-17T03:02:34.149Z,-1.40
2018-02-17T03:05:17.546Z,-1.50
2018-02-17T03:07:45.685Z,-1.50
2018-02-17T03:10:13.840Z,-1.40
2018-02-17T03:12:41.997Z,-1.40
2018-02-17T03:15:12.101Z,-1.40
2018-02-17T03:17:40.261Z,-1.40
2018-02-17T03:20:08.404Z,-1.40
2018-02-17T03:22:37.331Z,-1.40
2018-02-17T03:25:06.437Z,-1.40
2018-02-17T03:27:34.600Z,-1.40
2018-02-17T03:30:02.762Z,-1.40
2018-02-17T03:32:30.929Z,-1.40
2018-02-17T03:35:06.094Z,-1.30
2018-02-17T03:37:34.265Z,-1.30
2018-02-17T03:40:02.413Z,-1.30
2018-02-17T03:42:30.569Z,-1.20
2018-02-17T03:45:13.505Z,-1.20
2018-02-17T03:47:41.666Z,-1.30
2018-02-17T03:50:10.569Z,-1.30
2018-02-17T03:52:38.740Z,-1.30
2018-02-17T03:55:06.897Z,-1.30
2018-02-17T03:57:35.825Z,-1.30
2018-02-17T04:00:03.965Z,-1.30
2018-02-17T04:02:32.891Z,-1.20
2018-02-17T04:05:10.803Z,-1.20
2018-02-17T04:07:38.974Z,-1.20
2018-02-17T04:10:07.116Z,-1.20
2018-02-17T04:12:35.275Z,-1.10
2018-02-17T04:15:05.328Z,-1.20
2018-02-17T04:17:33.487Z,-1.20
2018-02-17T04:20:01.629Z,-1.20
2018-02-17T04:22:30.559Z,-1.30
2018-02-17T04:24:58.721Z,-1.30
2018-02-17T04:27:26.881Z,-1.20
2018-02-17T04:29:55.050Z,-1.20
2018-02-17T04:32:23.964Z,-1.20
2018-02-17T04:35:08.930Z,-1.20
2018-02-17T04:37:37.072Z,-1.20
2018-02-17T04:40:09.477Z,-1.20
2018-02-17T04:45:49.281Z,-1.20
2018-02-17T04:48:17.418Z,-1.20
2018-02-17T04:50:45.573Z,-1.20
2018-02-17T04:53:25.296Z,-1.20
2018-02-17T04:59:14.286Z,-1.20
2018-02-17T05:01:48.168Z,-1.30
2018-02-17T05:04:20.738Z,-1.30
2018-02-17T05:07:04.564Z,-1.30
2018-02-17T05:09:32.729Z,-1.30
2018-02-17T05:12:00.865Z,-1.30
2018-02-17T05:14:29.034Z,-1.30
2018-02-17T05:17:02.819Z,-1.30
2018-02-17T05:19:32.612Z,-1.30
2018-02-17T05:22:00.821Z,-1.40
2018-02-17T05:24:41.566Z,-1.40
2018-02-17T05:27:12.143Z,-1.50
2018-02-17T05:29:42.679Z,-1.50
2018-02-17T05:32:16.305Z,-1.40
2018-02-17T05:35:02.571Z,-1.40
2018-02-17T05:37:30.810Z,-1.50
2018-02-17T05:40:03.253Z,-1.50
2018-02-17T05:42:31.520Z,-1.50
2018-02-17T05:45:17.078Z,-1.50
2018-02-17T05:47:47.237Z,-1.50
2018-02-17T05:50:33.113Z,-1.50
2018-02-17T05:53:01.365Z,-1.60
2018-02-17T05:55:33.249Z,-1.60
2018-02-17T05:58:01.438Z,-1.60
2018-02-17T06:00:29.590Z,-1.50
2018-02-17T06:02:57.795Z,-1.50
2018-02-17T06:05:27.693Z,-1.50
2018-02-17T06:07:55.926Z,-1.60
2018-02-17T06:10:24.116Z,-1.60
2018-02-17T06:12:52.506Z,-1.50
2018-02-17T06:15:20.736Z,-1.60
2018-02-17T06:17:49.755Z,-1.60
2018-02-17T06:20:17.897Z,-1.50
2018-02-17T06:22:46.584Z,-1.50
2018-02-17T06:25:32.159Z,-1.50
2018-02-17T06:28:00.316Z,-1.50
2018-02-17T06:30:29.225Z,-1.50
2018-02-17T06:32:57.384Z,-1.50
2018-02-17T06:35:25.516Z,-1.50
2018-02-17T06:37:53.684Z,-1.50
2018-02-17T06:40:21.855Z,-1.50
2018-02-17T06:42:49.997Z,-1.60
2018-02-17T06:45:18.157Z,-1.60
2018-02-17T06:47:47.061Z,-1.50
2018-02-17T06:50:15.224Z,-1.60
2018-02-17T06:52:44.121Z,-1.60
2018-02-17T06:55:15.730Z,-1.60
2018-02-17T06:57:43.869Z,-1.60
2018-02-17T07:00:12.026Z,-1.60
2018-02-17T07:02:40.165Z,-1.50
2018-02-17T07:05:09.088Z,-1.50
2018-02-17T07:07:37.236Z,-1.50
2018-02-17T07:10:06.163Z,-1.50
2018-02-17T07:12:34.325Z,-1.50
2018-02-17T07:15:09.705Z,-1.40
2018-02-17T07:17:37.853Z,-1.30
2018-02-17T07:20:06.029Z,-1.30
2018-02-17T07:22:34.169Z,-1.30
2018-02-17T07:25:04.041Z,-1.30
2018-02-17T07:27:32.182Z,-1.20
2018-02-17T07:30:00.324Z,-1.20
2018-02-17T07:32:29.251Z,-1.20
2018-02-17T07:34:58.347Z,-1.20
2018-02-17T07:37:26.520Z,-1.20
2018-02-17T07:39:54.653Z,-1.10
2018-02-17T07:42:23.584Z,-1.10
2018-02-17T07:44:55.356Z,-1.00
2018-02-17T07:47:23.547Z,-1.00
2018-02-17T07:49:51.687Z,-0.90
2018-02-17T07:52:19.845Z,-0.80
2018-02-17T07:54:47.985Z,-0.70
2018-02-17T07:57:16.145Z,-0.60
2018-02-17T07:59:44.294Z,-0.60
2018-02-17T08:02:12.463Z,-0.60
2018-02-17T08:04:40.605Z,-0.60
2018-02-17T08:07:08.760Z,-0.60
2018-02-17T08:09:37.686Z,-0.60
2018-02-17T08:12:05.853Z,-0.60
2018-02-17T08:14:34.029Z,-0.60
2018-02-17T08:17:02.195Z,-0.60
2018-02-17T08:19:30.434Z,-0.60
2018-02-17T08:21:58.678Z,-0.60
2018-02-17T08:24:26.874Z,-0.60
2018-02-17T08:26:55.074Z,-0.60
2018-02-17T08:29:24.110Z,-0.50
2018-02-17T08:31:52.366Z,-0.40
2018-02-17T08:34:20.565Z,-0.40
2018-02-17T08:37:02.065Z,-0.30
2018-02-17T08:39:30.374Z,-0.20
2018-02-17T08:41:58.510Z,-0.20
2018-02-17T08:44:26.735Z,-0.20
2018-02-17T08:47:03.848Z,-0.10
2018-02-17T08:49:31.997Z,0.00
2018-02-17T08:52:00.120Z,0.00
2018-02-17T08:54:28.277Z,0.00
2018-02-17T08:56:57.369Z,0.10
2018-02-17T08:59:25.523Z,0.10
2018-02-17T09:01:53.681Z,0.20
2018-02-17T09:04:21.859Z,0.20
2018-02-17T09:06:59.185Z,0.30
2018-02-17T09:09:27.720Z,0.30
2018-02-17T09:11:55.858Z,0.50
2018-02-17T09:14:24.008Z,0.50
2018-02-17T09:16:53.086Z,0.60
2018-02-17T09:19:21.245Z,0.80
2018-02-17T09:21:49.389Z,0.80
2018-02-17T09:24:17.536Z,0.90
2018-02-17T09:27:16.541Z,1.00
2018-02-17T09:29:44.688Z,1.10
2018-02-17T09:32:12.825Z,1.20
2018-02-17T09:34:41.757Z,1.20
2018-02-17T09:37:09.889Z,1.30
2018-02-17T09:39:38.803Z,1.30
2018-02-17T09:42:06.929Z,1.30
2018-02-17T09:44:35.072Z,1.40
2018-02-17T09:47:03.198Z,1.50
2018-02-17T09:49:31.357Z,1.50
2018-02-17T09:51:59.488Z,1.50
2018-02-17T09:54:27.644Z,1.40
2018-02-17T09:57:03.613Z,1.50
2018-02-17T09:59:31.771Z,1.50
2018-02-17T10:01:59.906Z,1.50
2018-02-17T10:04:28.826Z,1.60
2018-02-17T10:06:58.957Z,1.50
2018-02-17T10:09:27.104Z,1.60
2018-02-17T10:11:55.293Z,1.70
2018-02-17T10:14:23.440Z,1.80
2018-02-17T10:17:04.749Z,1.90
2018-02-17T10:19:32.899Z,2.00
2018-02-17T10:22:01.798Z,2.00
2018-02-17T10:24:29.950Z,2.10
2018-02-17T10:27:21.577Z,2.20
2018-02-17T10:29:50.492Z,2.20
2018-02-17T10:32:18.653Z,2.20
2018-02-17T10:35:07.834Z,2.30
2018-02-17T10:37:35.960Z,2.40
2018-02-17T10:40:04.110Z,2.40
2018-02-17T10:42:32.237Z,2.50
2018-02-17T10:45:02.062Z,2.60
2018-02-17T10:47:30.221Z,2.60
2018-02-17T10:49:59.116Z,2.60
2018-02-17T10:52:27.265Z,2.70
2018-02-17T10:54:56.421Z,2.80
2018-02-17T10:57:24.584Z,2.90
2018-02-17T10:59:52.713Z,2.70
2018-02-17T11:02:21.629Z,2.60
2018-02-17T11:04:59.648Z,2.80
2018-02-17T11:07:27.793Z,2.70
2018-02-17T11:09:56.689Z,2.80
2018-02-17T11:12:24.845Z,2.80
2018-02-17T11:14:57.964Z,2.70
2018-02-17T11:17:26.170Z,2.70
2018-02-17T11:19:54.301Z,2.60
2018-02-17T11:22:22.452Z,2.60
2018-02-17T11:24:52.314Z,2.70
2018-02-17T11:27:20.506Z,2.70
2018-02-17T11:29:48.610Z,2.60
2018-02-17T11:32:17.533Z,2.60
2018-02-17T11:34:54.720Z,2.70
2018-02-17T11:37:22.881Z,2.70
2018-02-17T11:39:51.064Z,2.70
2018-02-17T11:42:19.223Z,2.70
2018-02-17T11:44:52.447Z,2.70
2018-02-17T11:47:20.597Z,2.70
2018-02-17T11:49:48.762Z,2.70
2018-02-17T11:52:17.657Z,2.60
2018-02-17T11:54:49.238Z,2.70
2018-02-17T11:57:17.365Z,2.60
2018-02-17T11:59:46.298Z,2.70
2018-02-17T12:02:14.430Z,2.80
2018-02-17T12:04:45.321Z,2.90
2018-02-17T12:07:13.464Z,2.90
2018-02-17T12:09:41.608Z,3.10
2018-02-17T12:12:10.517Z,3.00
2018-02-17T12:14:38.666Z,3.10
2018-02-17T12:17:06.792Z,3.10
2018-02-17T12:19:34.951Z,3.10
2018-02-17T12:22:03.089Z,3.00
2018-02-17T12:24:31.236Z,3.00
2018-02-17T12:27:00.304Z,3.00
2018-02-17T12:29:28.458Z,3.00
2018-02-17T12:31:56.641Z,3.00
2018-02-17T12:34:24.793Z,3.00
2018-02-17T12:37:01.302Z,2.90
2018-02-17T12:39:29.453Z,2.90
2018-02-17T12:41:57.584Z,3.00
2018-02-17T12:44:25.738Z,2.90
2018-02-17T12:47:06.265Z,2.80
2018-02-17T12:49:34.421Z,2.90
2018-02-17T12:52:02.553Z,2.80
2018-02-17T12:54:30.709Z,2.60
2018-02-17T12:57:09.088Z,2.60
2018-02-17T12:59:37.244Z,2.60
2018-02-17T13:02:06.148Z,2.60
2018-02-17T13:04:34.333Z,2.60
2018-02-17T13:07:03.256Z,2.60
2018-02-17T13:09:31.393Z,2.60
2018-02-17T13:11:59.553Z,2.60
2018-02-17T13:14:28.444Z,2.60
2018-02-17T13:16:56.597Z,2.80
2018-02-17T13:19:25.500Z,2.90
2018-02-17T13:21:54.422Z,2.80
2018-02-17T13:24:22.557Z,2.80
2018-02-17T13:26:53.501Z,2.80
2018-02-17T13:29:22.421Z,2.80
2018-02-17T13:31:50.587Z,2.80
2018-02-17T13:34:18.712Z,2.90
2018-02-17T13:36:54.232Z,2.80
2018-02-17T13:39:22.388Z,2.80
2018-02-17T13:41:50.533Z,2.80
2018-02-17T13:44:19.493Z,2.80
2018-02-17T13:47:01.574Z,2.80
2018-02-17T13:49:29.729Z,2.80
2018-02-17T13:51:57.933Z,2.90
2018-02-17T13:54:26.082Z,2.90
2018-02-17T13:56:54.260Z,2.90
2018-02-17T13:59:22.392Z,2.80
2018-02-17T14:01:51.313Z,2.80
2018-02-17T14:04:19.458Z,2.80
2018-02-17T14:06:49.313Z,2.70
2018-02-17T14:09:17.467Z,2.80
2018-02-17T14:11:45.611Z,2.80
2018-02-17T14:14:14.525Z,2.70
2018-02-17T14:16:42.673Z,2.70
2018-02-17T14:19:11.589Z,2.60
2018-02-17T14:21:39.741Z,2.60
2018-02-17T14:24:08.651Z,2.60
2018-02-17T14:26:36.787Z,2.50
2018-02-17T14:29:04.934Z,2.50
2018-02-17T14:31:33.112Z,2.50
2018-02-17T14:34:01.234Z,2.50
2018-02-17T14:37:10.073Z,2.50
2018-02-17T14:39:38.243Z,2.50
2018-02-17T14:42:06.375Z,2.50
2018-02-17T14:44:34.557Z,2.50
2018-02-17T14:47:03.366Z,2.50
2018-02-17T14:49:31.522Z,2.50
2018-02-17T14:51:59.709Z,2.50
2018-02-17T14:54:27.861Z,2.50
2018-02-17T14:56:56.009Z,2.50
2018-02-17T14:59:24.150Z,2.50
2018-02-17T15:01:52.281Z,2.50
2018-02-17T15:04:21.247Z,2.50
2018-02-17T15:06:54.500Z,2.50
2018-02-17T15:09:22.653Z,2.50
2018-02-17T15:11:50.809Z,2.40
2018-02-17T15:14:18.938Z,2.40
2018-02-17T15:16:47.085Z,2.40
2018-02-17T15:19:15.214Z,2.30
2018-02-17T15:21:43.361Z,2.30
2018-02-17T15:24:11.489Z,2.20
2018-02-17T15:26:40.635Z,2.20
2018-02-17T15:29:08.761Z,2.20
2018-02-17T15:31:37.689Z,2.20
2018-02-17T15:34:05.825Z,2.20
2018-02-17T15:36:43.075Z,2.20
2018-02-17T15:39:11.197Z,2.20
2018-02-17T15:41:39.348Z,2.10
2018-02-17T15:44:08.254Z,2.10
2018-02-17T15:46:58.041Z,2.10
2018-02-17T15:49:26.193Z,2.10
2018-02-17T15:51:55.198Z,2.00
2018-02-17T15:54:23.423Z,2.00
2018-02-17T15:57:01.413Z,1.90
2018-02-17T15:59:29.577Z,2.00
2018-02-17T16:01:57.767Z,2.00
2018-02-17T16:04:25.950Z,1.90
2018-02-17T16:07:08.491Z,1.80
2018-02-17T16:09:36.633Z,1.80
2018-02-17T16:12:04.825Z,1.80
2018-02-17T16:14:33.006Z,1.70
2018-02-17T16:17:29.298Z,1.70
2018-02-17T16:19:57.471Z,1.60
2018-02-17T16:22:25.649Z,1.60
2018-02-17T16:24:53.887Z,1.60
2018-02-17T16:27:22.131Z,1.50
2018-02-17T16:29:50.337Z,1.50
2018-02-17T16:32:18.547Z,1.40
2018-02-17T16:34:46.745Z,1.40
2018-02-17T16:37:14.989Z,1.40
2018-02-17T16:39:43.168Z,1.30
2018-02-17T16:42:11.405Z,1.20
2018-02-17T16:44:39.585Z,1.20
2018-02-17T16:47:07.766Z,1.20
2018-02-17T16:49:35.930Z,1.20
2018-02-17T16:52:04.056Z,1.30
2018-02-17T16:54:32.197Z,1.30
2018-02-17T16:57:02.128Z,1.40
2018-02-17T16:59:30.278Z,1.40
2018-02-17T17:01:58.408Z,1.30
2018-02-17T17:04:26.561Z,1.20
2018-02-17T17:07:10.128Z,1.20
2018-02-17T17:09:39.041Z,1.40
2018-02-17T17:12:07.173Z,1.40
2018-02-17T17:14:35.316Z,1.30
2018-02-17T17:17:03.477Z,1.30
2018-02-17T17:19:31.625Z,1.30
2018-02-17T17:21:59.761Z,1.30
2018-02-17T17:24:27.909Z,1.20
2018-02-17T17:26:56.037Z,1.30
2018-02-17T17:29:24.182Z,1.20
2018-02-17T17:31:52.309Z,1.20
2018-02-17T17:34:20.457Z,1.20
2018-02-17T17:36:49.594Z,1.20
2018-02-17T17:39:17.724Z,1.10
2018-02-17T17:41:45.877Z,1.10
2018-02-17T17:44:14.781Z,1.00
2018-02-17T17:46:42.976Z,1.00
2018-02-17T17:49:11.110Z,1.00
2018-02-17T17:51:39.256Z,1.00
2018-02-17T17:54:07.385Z,1.00
2018-02-17T17:56:42.965Z,0.90
2018-02-17T17:59:11.107Z,1.10
2018-02-17T18:01:39.254Z,1.00
2018-02-17T18:04:07.387Z,0.90
2018-02-17T18:06:52.928Z,1.00
2018-02-17T18:09:21.065Z,1.00
2018-02-17T18:11:49.209Z,1.00
2018-02-17T18:14:17.341Z,1.00
2018-02-17T18:16:47.501Z,1.10
2018-02-17T18:19:15.630Z,1.10
2018-02-17T18:21:44.589Z,1.00
2018-02-17T18:24:12.709Z,1.20
2018-02-17T18:26:42.860Z,1.20
2018-02-17T18:29:11.001Z,1.20
2018-02-17T18:31:39.145Z,1.10
2018-02-17T18:34:08.060Z,1.00
2018-02-17T18:36:51.189Z,1.00
2018-02-17T18:39:19.337Z,1.00
2018-02-17T18:41:48.266Z,1.20
2018-02-17T18:44:16.424Z,1.10
2018-02-17T18:46:44.573Z,1.10
2018-02-17T18:49:13.478Z,1.00
2018-02-17T18:51:42.449Z,1.00
2018-02-17T18:54:10.589Z,1.10
2018-02-17T18:56:46.342Z,1.10
2018-02-17T18:59:14.469Z,1.00
2018-02-17T19:01:43.381Z,1.00
2018-02-17T19:04:11.532Z,0.90
2018-02-17T19:07:14.815Z,0.90
2018-02-17T19:09:43.749Z,0.80
2018-02-17T19:12:11.909Z,0.80
2018-02-17T19:14:40.050Z,0.80
2018-02-17T19:17:08.964Z,0.80
2018-02-17T19:19:37.133Z,0.90
2018-02-17T19:22:05.303Z,1.00
2018-02-17T19:24:33.434Z,1.00
2018-02-17T19:27:01.588Z,1.00
2018-02-17T19:29:29.733Z,0.90
2018-02-17T19:31:57.864Z,1.00
2018-02-17T19:34:26.017Z,0.90
2018-02-17T19:36:54.152Z,1.00
2018-02-17T19:39:22.301Z,1.00
2018-02-17T19:41:51.205Z,1.00
2018-02-17T19:44:20.126Z,1.00
2018-02-17T19:46:48.256Z,1.00
2018-02-17T19:49:17.177Z,0.90
2018-02-17T19:51:45.305Z,0.80
2018-02-17T19:54:13.453Z,0.80
2018-02-17T19:56:41.604Z,0.90
2018-02-17T19:59:09.760Z,0.80
2018-02-17T20:01:37.909Z,0.80
2018-02-17T20:04:06.838Z,0.70
2018-02-17T20:06:37.997Z,0.70
2018-02-17T20:09:06.148Z,0.70
2018-02-17T20:11:34.292Z,0.80
2018-02-17T20:14:03.213Z,0.80
2018-02-17T20:16:39.685Z,0.80
2018-02-17T20:19:07.828Z,0.70
2018-02-17T20:21:36.721Z,0.70
2018-02-17T20:24:04.901Z,0.70
2018-02-17T20:26:33.038Z,0.70
2018-02-17T20:29:01.172Z,0.70
2018-02-17T20:31:29.321Z,0.70
2018-02-17T20:33:57.445Z,0.80
2018-02-17T20:36:30.523Z,0.80
2018-02-17T20:38:58.689Z,0.80
2018-02-17T20:41:26.836Z,0.70
2018-02-17T20:43:54.956Z,0.80
2018-02-17T20:46:23.113Z,0.80
2018-02-17T20:48:51.237Z,0.80
2018-02-17T20:51:20.155Z,0.80
2018-02-17T20:53:48.307Z,0.80
2018-02-17T20:56:18.369Z,0.70
2018-02-17T20:58:46.497Z,0.80
2018-02-17T21:01:14.664Z,0.70
2018-02-17T21:03:43.565Z,0.80
2018-02-17T21:06:14.948Z,0.80
2018-02-17T21:08:43.086Z,0.80
2018-02-17T21:11:11.237Z,0.80
2018-02-17T21:13:40.185Z,0.80
2018-02-17T21:16:25.630Z,0.80
2018-02-17T21:18:53.752Z,0.80
2018-02-17T21:21:21.909Z,0.80
2018-02-17T21:23:50.052Z,0.70
2018-02-17T21:26:46.949Z,0.60
2018-02-17T21:29:15.077Z,0.50
2018-02-17T21:31:43.233Z,0.70
2018-02-17T21:34:12.124Z,0.60
2018-02-17T21:36:43.002Z,0.50
2018-02-17T21:39:11.137Z,0.70
2018-02-17T21:41:39.305Z,0.60
2018-02-17T21:44:08.205Z,0.60
2018-02-17T21:46:37.316Z,0.50
2018-02-17T21:49:05.491Z,0.40
2018-02-17T21:51:33.619Z,0.40
2018-02-17T21:54:01.770Z,0.30
2018-02-17T21:56:29.900Z,0.20
2018-02-17T21:58:58.059Z,0.20
2018-02-17T22:01:26.190Z,0.20
2018-02-17T22:03:54.343Z,0.20
2018-02-17T22:06:30.909Z,0.10
2018-02-17T22:08:59.053Z,0.00
2018-02-17T22:11:27.181Z,0.00
2018-02-17T22:13:55.329Z,0.00
2018-02-17T22:16:24.405Z,0.00
2018-02-17T22:18:52.571Z,0.10
2018-02-17T22:21:20.689Z,0.10
2018-02-17T22:23:48.850Z,-0.10
2018-02-17T22:26:29.593Z,-0.10
2018-02-17T22:28:57.756Z,-0.20
2018-02-17T22:31:25.893Z,-0.30
2018-02-17T22:33:54.055Z,-0.30
2018-02-17T22:36:29.362Z,-0.40
2018-02-17T22:38:57.541Z,-0.40
2018-02-17T22:41:25.681Z,-0.40
2018-02-17T22:43:54.576Z,-0.40
2018-02-17T22:46:22.752Z,-0.40
2018-02-17T22:48:50.889Z,-0.40
2018-02-17T22:51:19.045Z,-0.40
2018-02-17T22:53:47.185Z,-0.40
2018-02-17T22:56:19.885Z,-0.40
2018-02-17T22:58:48.021Z,-0.40
2018-02-17T23:01:16.184Z,-0.30
2018-02-17T23:03:45.086Z,-0.40
2018-02-17T23:06:36.409Z,-0.40
2018-02-17T23:09:04.558Z,-0.40
2018-02-17T23:11:33.477Z,-0.40
2018-02-17T23:14:01.635Z,-0.40
2018-02-17T23:16:31.794Z,-0.40
2018-02-17T23:18:59.937Z,-0.40
2018-02-17T23:21:28.089Z,-0.50
2018-02-17T23:23:56.991Z,-0.50
2018-02-17T23:26:27.153Z,-0.50
2018-02-17T23:28:55.289Z,-0.50
2018-02-17T23:31:23.448Z,-0.50
2018-02-17T23:33:52.357Z,-0.60
2018-02-17T23:36:32.116Z,-0.60
2018-02-17T23:39:00.253Z,-0.70
2018-02-17T23:41:29.157Z,-0.60
2018-02-17T23:43:57.320Z,-0.60
2018-02-17T23:46:26.990Z,-0.60
2018-02-17T23:48:55.224Z,-0.70
2018-02-17T23:51:23.369Z,-0.70
2018-02-17T23:53:52.293Z,-0.80
2018-02-17T23:56:28.339Z,-0.80
2018-02-17T23:58:56.509Z,-0.80
